Time,TemperatureF,DewpointF,PressureIn,WindDirection,WindDirectionDegrees,WindSpeedMPH,WindSpeedGustMPH,Humidity,HourlyPrecipIn,Conditions,Clouds,dailyrainin,SolarRadiationWatts/m^2,SoftwareType,DateUTC
2013-02-05 00:00:00,32.0,32.0,-100.00,South,181,0.0,1.0,99,-99.99,,,0.00,-0.200000,,2013-02-05 08:00:00,
2013-02-05 00:52:00,32.0,32.0,-100.00,South,181,0.0,1.0,99,-99.99,,,0.00,-0.200000,,2013-02-05 08:52:00,
2013-02-05 01:00:00,31.0,31.0,-100.00,SSW,200,0.0,0.0,99,-99.99,,,0.00,-0.200000,,2013-02-05 09:00:00,
2013-02-05 01:52:00,31.0,31.0,-100.00,SSW,200,0.0,0.0,99,-99.99,,,0.00,-0.200000,,2013-02-05 09:52:00,
2013-02-05 02:00:00,30.0,30.0,-100.00,NNW,333,0.0,1.0,98,-99.99,,,-99.99,-0.200000,,2013-02-05 10:00:00,
2013-02-05 02:52:00,30.0,30.0,-100.00,NNW,333,0.0,1.0,98,-99.99,,,-99.99,-0.200000,,2013-02-05 10:52:00,
2013-02-05 03:00:00,29.0,28.0,-100.00,NE,41,0.0,1.0,97,-99.99,,,0.00,-0.200000,,2013-02-05 11:00:00,
2013-02-05 03:52:00,29.0,28.0,-100.00,NE,41,0.0,1.0,97,-99.99,,,0.00,-0.200000,,2013-02-05 11:52:00,
2013-02-05 04:00:00,30.0,29.0,-100.00,NNE,15,0.0,3.0,96,-99.99,,,0.00,-0.200000,,2013-02-05 12:00:00,
2013-02-05 04:52:00,30.0,29.0,-100.00,NNE,15,0.0,3.0,96,-99.99,,,0.00,-0.200000,,2013-02-05 12:52:00,
2013-02-05 05:00:00,28.0,26.0,-100.00,WNW,287,1.0,5.0,91,-99.99,,,0.00,-0.200000,,2013-02-05 13:00:00,
2013-02-05 05:52:00,28.0,26.0,-100.00,WNW,287,1.0,5.0,91,-99.99,,,0.00,-0.200000,,2013-02-05 13:52:00,
2013-02-05 06:00:00,28.0,25.0,-100.00,ENE,78,1.0,3.0,90,-99.99,,,-99.99,-0.200000,,2013-02-05 14:00:00,
2013-02-05 06:52:00,28.0,25.0,-100.00,ENE,78,1.0,3.0,90,-99.99,,,-99.99,-0.200000,,2013-02-05 14:52:00,
2013-02-05 07:00:00,30.0,26.0,-100.00,SE,124,1.0,3.0,82,-99.99,,,-99.99,-0.200000,,2013-02-05 15:00:00,
2013-02-05 07:52:00,30.0,26.0,-100.00,SE,124,1.0,3.0,82,-99.99,,,-99.99,-0.200000,,2013-02-05 15:52:00,
2013-02-05 09:00:00,33.0,29.0,-100.00,South,190,2.0,6.0,84,-99.99,,,0.00,27.500000,,2013-02-05 17:00:00,
2013-02-05 09:52:00,33.0,29.0,-100.00,South,190,2.0,6.0,84,-99.99,,,0.00,27.500000,,2013-02-05 17:52:00,
2013-02-05 10:00:00,33.0,29.0,-100.00,East,97,4.0,7.0,85,-99.99,,,0.00,45.500000,,2013-02-05 18:00:00,
2013-02-05 10:52:00,33.0,29.0,-100.00,East,97,4.0,7.0,85,-99.99,,,0.00,45.500000,,2013-02-05 18:52:00,
2013-02-05 11:00:00,38.0,32.0,-100.00,SE,128,3.0,7.0,79,-99.99,,,0.00,248.100006,,2013-02-05 19:00:00,
2013-02-05 11:52:00,38.0,32.0,-100.00,SE,128,3.0,7.0,79,-99.99,,,0.00,248.100006,,2013-02-05 19:52:00,
2013-02-05 12:00:00,36.0,29.0,-100.00,SSW,197,3.0,7.0,77,-99.99,,,0.00,402.899994,,2013-02-05 20:00:00,
2013-02-05 12:52:00,36.0,29.0,-100.00,SSW,197,3.0,7.0,77,-99.99,,,0.00,402.899994,,2013-02-05 20:52:00,
2013-02-05 13:00:00,36.0,29.0,-100.00,WSW,237,3.0,6.0,75,-99.99,,,0.00,399.799988,,2013-02-05 21:00:00,
2013-02-05 13:52:00,36.0,29.0,-100.00,WSW,237,3.0,6.0,75,-99.99,,,0.00,399.799988,,2013-02-05 21:52:00,
2013-02-05 14:00:00,37.0,28.0,-100.00,NW,311,3.0,6.0,69,-99.99,,,0.00,507.000000,,2013-02-05 22:00:00,
2013-02-05 14:52:00,37.0,28.0,-100.00,NW,311,3.0,6.0,69,-99.99,,,0.00,507.000000,,2013-02-05 22:52:00,
2013-02-05 15:00:00,35.0,26.0,-100.00,SSE,167,3.0,7.0,72,-99.99,,,0.00,392.799988,,2013-02-05 23:00:00,
2013-02-05 15:52:00,35.0,26.0,-100.00,SSE,167,3.0,7.0,72,-99.99,,,0.00,392.799988,,2013-02-05 23:52:00,
2013-02-05 16:00:00,32.0,26.0,-100.00,SSW,194,4.0,8.0,79,-99.99,,,0.00,105.300003,,2013-02-06 00:00:00,
2013-02-05 16:52:00,32.0,26.0,-100.00,SSW,194,4.0,8.0,79,-99.99,,,0.00,105.300003,,2013-02-06 00:52:00,
2013-02-05 17:00:00,30.0,26.0,-100.00,SE,137,3.0,6.0,83,-99.99,,,0.00,57.400002,,2013-02-06 01:00:00,
2013-02-05 17:53:00,30.0,26.0,-100.00,SE,137,3.0,6.0,83,-99.99,,,0.00,57.400002,,2013-02-06 01:53:00,
2013-02-05 18:00:00,30.0,27.0,-100.00,SSE,155,3.0,7.0,89,-99.99,,,0.00,1.100000,,2013-02-06 02:00:00,
2013-02-05 18:52:00,30.0,27.0,-100.00,SSE,155,3.0,7.0,89,-99.99,,,0.00,1.100000,,2013-02-06 02:52:00,
2013-02-05 19:00:00,29.0,27.0,-100.00,ESE,112,2.0,6.0,90,-99.99,,,0.00,-0.200000,,2013-02-06 03:00:00,
2013-02-05 19:53:00,29.0,27.0,-100.00,ESE,112,2.0,6.0,90,-99.99,,,0.00,-0.200000,,2013-02-06 03:53:00,
2013-02-05 20:00:00,29.0,27.0,-100.00,ESE,107,1.0,3.0,90,-99.99,,,0.00,-0.200000,,2013-02-06 04:00:00,
2013-02-05 20:52:00,29.0,27.0,-100.00,ESE,107,1.0,3.0,90,-99.99,,,0.00,-0.200000,,2013-02-06 04:52:00,
2013-02-05 21:00:00,29.0,27.0,-100.00,SW,216,2.0,8.0,94,-99.99,,,0.00,-0.200000,,2013-02-06 05:00:00,
2013-02-05 21:53:00,29.0,27.0,-100.00,SW,216,2.0,8.0,94,-99.99,,,0.00,-0.200000,,2013-02-06 05:53:00,
2013-02-05 22:00:00,28.0,26.0,-100.00,SSE,167,4.0,8.0,92,-99.99,,,0.00,-0.200000,,2013-02-06 06:00:00,
2013-02-05 22:52:00,28.0,26.0,-100.00,SSE,167,4.0,8.0,92,-99.99,,,0.00,-0.200000,,2013-02-06 06:52:00,
2013-02-05 23:00:00,28.0,27.0,-100.00,SW,229,3.0,8.0,93,-99.99,,,0.00,-0.200000,,2013-02-06 07:00:00,
2013-02-05 23:52:00,28.0,27.0,-100.00,SW,229,3.0,8.0,93,-99.99,,,0.00,-0.200000,,2013-02-06 07:52:00,